createdAt,value
2017-10-15T00:00:53.344Z,1008.0
2017-10-15T00:01:57.589Z,1008.0
2017-10-15T00:02:58.984Z,1008.0
2017-10-15T00:04:01.436Z,1008.0
2017-10-15T00:05:03.147Z,1008.0
2017-10-15T00:06:06.371Z,1008.0
2017-10-15T00:07:08.843Z,1008.0
2017-10-15T00:08:11.677Z,1007.9
2017-10-15T00:12:10.061Z,1008.0
2017-10-15T00:13:12.435Z,1008.0
2017-10-15T00:14:15.534Z,1008.0
2017-10-15T00:15:18.637Z,1008.0
2017-10-15T00:16:21.450Z,1008.0
2017-10-15T00:17:23.880Z,1008.0
2017-10-15T00:18:28.795Z,1008.0
2017-10-15T00:19:31.718Z,1008.0
2017-10-15T00:20:35.081Z,1008.0
2017-10-15T00:21:38.560Z,1007.9
2017-10-15T00:22:41.719Z,1007.9
2017-10-15T00:23:44.864Z,1007.9
2017-10-15T00:24:48.402Z,1008.0
2017-10-15T00:25:51.326Z,1007.9
2017-10-15T00:26:54.020Z,1007.9
2017-10-15T00:27:57.365Z,1007.9
2017-10-15T00:29:00.879Z,1007.9
2017-10-15T00:30:04.766Z,1007.9
2017-10-15T00:31:07.874Z,1007.9
2017-10-15T00:32:10.912Z,1007.9
2017-10-15T00:33:13.919Z,1007.9
2017-10-15T00:34:16.386Z,1007.9
2017-10-15T00:35:18.938Z,1007.9
2017-10-15T00:36:21.719Z,1008.0
2017-10-15T00:37:24.469Z,1007.9
2017-10-15T00:38:27.194Z,1008.0
2017-10-15T00:39:29.573Z,1008.0
2017-10-15T00:40:32.161Z,1008.0
2017-10-15T00:41:34.540Z,1007.9
2017-10-15T00:42:36.800Z,1007.9
2017-10-15T00:43:39.051Z,1007.9
2017-10-15T00:44:41.496Z,1007.9
2017-10-15T00:45:43.793Z,1007.9
2017-10-15T00:46:46.285Z,1007.9
2017-10-15T00:47:48.838Z,1007.9
2017-10-15T00:48:51.353Z,1007.9
2017-10-15T00:49:53.811Z,1007.9
2017-10-15T00:50:56.246Z,1007.8
2017-10-15T00:51:58.505Z,1007.8
2017-10-15T00:53:01.397Z,1007.8
2017-10-15T00:54:05.320Z,1007.8
2017-10-15T00:55:12.056Z,1007.8
2017-10-15T00:56:16.352Z,1007.8
2017-10-15T00:57:20.994Z,1007.8
2017-10-15T00:58:24.919Z,1007.9
2017-10-15T00:59:35.466Z,1007.8
2017-10-15T01:00:40.861Z,1007.8
2017-10-15T01:01:46.043Z,1007.8
2017-10-15T01:02:51.216Z,1007.8
2017-10-15T12:39:39.494Z,1006.6
2017-10-15T12:40:40.936Z,1006.5
2017-10-15T12:41:42.408Z,1006.5
2017-10-15T12:42:43.825Z,1006.5
2017-10-15T12:43:45.269Z,1006.5
2017-10-15T12:44:46.727Z,1006.5
2017-10-15T12:45:48.149Z,1006.5
2017-10-15T12:46:49.589Z,1006.5
2017-10-15T12:47:51.040Z,1006.5
2017-10-15T12:48:52.817Z,1006.4
2017-10-15T12:49:54.267Z,1006.5
2017-10-15T12:50:55.748Z,1006.5
2017-10-15T12:51:57.196Z,1006.5
2017-10-15T12:52:58.631Z,1006.5
2017-10-15T12:54:00.092Z,1006.5
2017-10-15T12:55:01.547Z,1006.4
2017-10-15T12:56:03.010Z,1006.4
2017-10-15T12:57:04.470Z,1006.4
2017-10-15T12:58:05.938Z,1006.4
2017-10-15T12:59:07.396Z,1006.3
2017-10-15T13:00:08.850Z,1006.4
2017-10-15T13:01:10.320Z,1006.4
2017-10-15T13:02:11.783Z,1006.3
2017-10-15T13:03:13.225Z,1006.3
2017-10-15T13:04:14.662Z,1006.3
2017-10-15T13:05:16.264Z,1006.3
2017-10-15T13:06:17.700Z,1006.3
2017-10-15T13:07:19.615Z,1006.3
2017-10-15T13:08:21.058Z,1006.3
2017-10-15T13:09:22.489Z,1006.2
2017-10-15T13:10:23.942Z,1006.3
2017-10-15T13:11:25.372Z,1006.2
2017-10-15T13:12:26.872Z,1006.3
2017-10-15T13:13:28.337Z,1006.3
2017-10-15T13:14:29.810Z,1006.2
2017-10-15T13:15:31.249Z,1006.2
2017-10-15T13:16:32.794Z,1006.2
2017-10-15T13:17:34.235Z,1006.2
2017-10-15T13:18:35.674Z,1006.2
2017-10-15T13:19:37.093Z,1006.2
2017-10-15T13:20:38.513Z,1006.2
2017-10-15T13:21:39.953Z,1006.2
2017-10-15T13:22:41.382Z,1006.2
2017-10-15T13:23:42.930Z,1006.2
2017-10-15T13:24:44.432Z,1006.2
2017-10-15T13:25:46.593Z,1006.2
2017-10-15T13:26:48.626Z,1006.2
2017-10-15T13:27:50.270Z,1006.2
2017-10-15T13:28:51.827Z,1006.2
2017-10-15T13:29:53.404Z,1006.2
2017-10-15T13:30:54.913Z,1006.1
2017-10-15T13:31:56.367Z,1006.1
2017-10-15T13:32:57.964Z,1006.1
2017-10-15T13:33:59.480Z,1006.1
2017-10-15T13:35:00.921Z,1006.1
2017-10-15T13:36:02.385Z,1006.1
2017-10-15T13:37:03.850Z,1006.0
2017-10-15T13:38:05.304Z,1006.1
2017-10-15T13:39:06.743Z,1006.1
2017-10-15T13:40:08.217Z,1006.1
2017-10-15T13:41:09.700Z,1006.0
2017-10-15T13:42:11.213Z,1006.0
2017-10-15T13:43:12.800Z,1006.0
2017-10-15T13:44:14.415Z,1006.0
2017-10-15T13:45:15.884Z,1006.1
2017-10-15T13:46:17.438Z,1006.0
2017-10-15T13:47:18.953Z,1006.0
2017-10-15T13:48:20.504Z,1006.0
2017-10-15T13:49:21.952Z,1005.9
2017-10-15T13:50:23.400Z,1005.9
2017-10-15T13:51:24.836Z,1005.9
2017-10-15T13:52:26.297Z,1005.9
2017-10-15T13:53:27.740Z,1005.9
2017-10-15T13:54:29.224Z,1005.9
2017-10-15T13:55:30.715Z,1005.9
2017-10-15T13:56:32.164Z,1005.9
2017-10-15T13:57:33.608Z,1005.9
2017-10-15T13:58:35.116Z,1005.9
2017-10-15T13:59:36.602Z,1005.9
2017-10-15T14:00:38.030Z,1005.9
2017-10-15T14:01:39.490Z,1005.9
2017-10-15T14:02:40.949Z,1005.8
2017-10-15T14:03:42.418Z,1005.8
2017-10-15T14:04:43.865Z,1005.9
2017-10-15T14:05:45.333Z,1005.8
2017-10-15T14:06:46.877Z,1005.8
2017-10-15T14:07:48.447Z,1005.8
2017-10-15T14:08:50.057Z,1005.8
2017-10-15T14:09:52.546Z,1005.8
2017-10-15T14:10:53.959Z,1005.8
2017-10-15T14:11:55.417Z,1005.7
2017-10-15T14:12:56.855Z,1005.8
2017-10-15T14:13:58.289Z,1005.7
2017-10-15T14:14:59.743Z,1005.7
2017-10-15T14:16:01.323Z,1005.7
2017-10-15T14:17:02.767Z,1005.7
2017-10-15T14:18:04.296Z,1005.7
2017-10-15T14:19:05.780Z,1005.7
2017-10-15T14:20:07.240Z,1005.7
2017-10-15T14:21:08.702Z,1005.7
2017-10-15T14:22:10.205Z,1005.6
2017-10-15T14:23:11.788Z,1005.6
2017-10-15T14:24:13.384Z,1005.7
2017-10-15T14:25:14.920Z,1005.7
2017-10-15T14:26:16.359Z,1005.7
2017-10-15T14:27:17.897Z,1005.6
2017-10-15T14:28:19.388Z,1005.7
2017-10-15T14:29:20.906Z,1005.7
2017-10-15T14:30:22.466Z,1005.6
2017-10-15T14:31:23.972Z,1005.7
2017-10-15T14:32:25.595Z,1005.6
2017-10-15T14:33:27.058Z,1005.6
2017-10-15T14:34:28.549Z,1005.7
2017-10-15T14:35:30.037Z,1005.6
2017-10-15T14:36:31.596Z,1005.6
2017-10-15T14:37:33.095Z,1005.6
2017-10-15T14:38:34.570Z,1005.6
2017-10-15T14:39:36.091Z,1005.6
2017-10-15T14:40:37.747Z,1005.6
2017-10-15T14:41:39.203Z,1005.6
2017-10-15T14:42:41.382Z,1005.6
2017-10-15T14:43:42.934Z,1005.6
2017-10-15T14:44:44.456Z,1005.6
2017-10-15T14:45:45.999Z,1005.6
2017-10-15T14:46:47.502Z,1005.5
2017-10-15T14:47:48.988Z,1005.5
2017-10-15T14:48:50.582Z,1005.5
2017-10-15T14:49:52.092Z,1005.5
2017-10-15T14:50:53.621Z,1005.5
2017-10-15T14:51:55.221Z,1005.5
2017-10-15T14:52:56.827Z,1005.5
2017-10-15T14:53:58.371Z,1005.5
2017-10-15T14:54:59.904Z,1005.5
2017-10-15T14:56:01.443Z,1005.5
2017-10-15T14:57:02.915Z,1005.5
2017-10-15T14:58:04.341Z,1005.5
2017-10-15T14:59:06.100Z,1005.5
2017-10-15T15:00:07.625Z,1005.5
2017-10-15T15:01:09.047Z,1005.5
2017-10-15T15:02:10.496Z,1005.4
2017-10-15T15:03:12.032Z,1005.5
2017-10-15T15:04:13.559Z,1005.4
2017-10-15T15:05:14.996Z,1005.4
2017-10-15T15:06:16.447Z,1005.4
2017-10-15T15:07:17.877Z,1005.4
2017-10-15T15:08:19.311Z,1005.4
2017-10-15T15:09:20.917Z,1005.4
2017-10-15T15:10:22.413Z,1005.3
2017-10-15T15:11:23.851Z,1005.3
2017-10-15T15:12:25.394Z,1005.3
2017-10-15T15:13:26.858Z,1005.3
2017-10-15T15:14:29.343Z,1005.3
2017-10-15T15:15:30.825Z,1005.3
2017-10-15T15:16:32.389Z,1005.3
2017-10-15T15:17:33.837Z,1005.3
2017-10-15T15:18:35.273Z,1005.4
2017-10-15T15:19:36.728Z,1005.3
2017-10-15T15:20:38.153Z,1005.4
2017-10-15T15:21:39.598Z,1005.3
2017-10-15T15:22:41.037Z,1005.3
2017-10-15T15:23:42.547Z,1005.2
2017-10-15T15:24:44.387Z,1005.1
2017-10-15T15:25:45.963Z,1005.1
2017-10-15T15:26:47.569Z,1005.1
2017-10-15T15:27:49.106Z,1005.0
2017-10-15T15:28:50.710Z,1005.1
2017-10-15T15:29:52.528Z,1005.2
2017-10-15T15:30:54.093Z,1005.3
2017-10-15T15:31:55.619Z,1005.4
2017-10-15T15:32:57.139Z,1005.4
2017-10-15T15:33:58.673Z,1005.4
2017-10-15T15:35:00.218Z,1005.5
2017-10-15T15:36:02.593Z,1005.5
2017-10-15T15:37:04.635Z,1005.5
2017-10-15T15:38:06.457Z,1005.4
2017-10-15T15:39:08.417Z,1005.1
2017-10-15T15:40:09.984Z,1004.9
2017-10-15T15:41:11.580Z,1004.8
2017-10-15T15:42:13.071Z,1004.8
2017-10-15T15:43:14.638Z,1004.8
2017-10-15T15:44:16.093Z,1004.8
2017-10-15T15:45:17.692Z,1004.8
2017-10-15T15:46:19.220Z,1004.8
2017-10-15T15:47:20.695Z,1004.8
2017-10-15T15:48:22.168Z,1004.7
2017-10-15T15:49:23.725Z,1004.7
2017-10-15T15:54:15.377Z,1004.7
2017-10-15T15:55:16.800Z,1004.7
2017-10-15T15:56:18.255Z,1004.7
2017-10-15T15:57:19.719Z,1004.7
2017-10-15T15:58:21.231Z,1004.7
2017-10-15T15:59:22.651Z,1004.7
2017-10-15T16:00:24.067Z,1004.7
2017-10-15T16:01:25.480Z,1004.7
2017-10-15T16:02:27.096Z,1004.7
2017-10-15T16:03:29.407Z,1004.7
2017-10-15T16:04:30.840Z,1004.7
2017-10-15T16:05:32.283Z,1004.7
2017-10-15T16:06:33.682Z,1004.8
2017-10-15T16:07:35.119Z,1004.7
2017-10-15T16:08:36.558Z,1004.8
2017-10-15T16:09:37.984Z,1004.8
2017-10-15T16:10:39.459Z,1004.8
2017-10-15T16:11:41.040Z,1004.8
2017-10-15T16:12:42.988Z,1004.8
2017-10-15T16:13:44.888Z,1004.8
2017-10-15T16:14:47.036Z,1004.8
2017-10-15T16:15:48.575Z,1004.8
2017-10-15T16:16:50.146Z,1004.8
2017-10-15T16:17:51.703Z,1004.8
2017-10-15T16:18:53.232Z,1004.8
2017-10-15T16:19:54.782Z,1004.7
2017-10-15T16:20:56.393Z,1004.7
2017-10-15T16:21:57.956Z,1004.8
2017-10-15T16:22:59.582Z,1004.8
2017-10-15T16:24:01.116Z,1004.8
2017-10-15T16:25:02.546Z,1004.8
2017-10-15T16:26:03.994Z,1004.8
2017-10-15T16:27:06.800Z,1004.8
2017-10-15T16:28:08.353Z,1004.8
2017-10-15T16:29:09.789Z,1004.8
2017-10-15T16:30:11.374Z,1004.8
2017-10-15T16:31:12.883Z,1004.8
2017-10-15T16:32:18.186Z,1004.8
2017-10-15T16:33:20.726Z,1004.9
2017-10-15T16:35:01.744Z,1004.9
2017-10-15T16:36:03.171Z,1004.9
2017-10-15T16:37:09.788Z,1004.9
2017-10-15T16:38:11.296Z,1004.9
2017-10-15T16:39:13.216Z,1004.9
2017-10-15T16:40:14.878Z,1004.9
2017-10-15T16:41:17.064Z,1004.9
2017-10-15T16:42:18.491Z,1004.9
2017-10-15T16:43:20.026Z,1004.9
2017-10-15T16:44:21.648Z,1004.9
2017-10-15T16:45:23.876Z,1004.9
2017-10-15T16:46:25.405Z,1004.9
2017-10-15T16:47:26.994Z,1005.0
2017-10-15T16:48:28.460Z,1005.0
2017-10-15T16:49:30.024Z,1004.9
2017-10-15T16:50:31.735Z,1004.9
2017-10-15T16:51:33.357Z,1004.9
2017-10-15T16:52:34.894Z,1004.9
2017-10-15T16:53:39.149Z,1004.9
2017-10-15T16:55:24.400Z,1004.9
2017-10-15T16:56:26.572Z,1004.9
2017-10-15T16:57:28.246Z,1004.9
2017-10-15T16:58:29.964Z,1004.9
2017-10-15T16:59:32.198Z,1005.0
2017-10-15T17:00:33.884Z,1004.9
2017-10-15T17:01:35.452Z,1005.0
2017-10-15T17:02:37.032Z,1005.0
2017-10-15T17:03:38.585Z,1005.0
2017-10-15T17:04:41.226Z,1005.0
2017-10-15T17:05:43.796Z,1005.1
2017-10-15T17:06:45.791Z,1005.1
2017-10-15T17:07:48.697Z,1005.1
2017-10-15T17:08:50.656Z,1005.0
2017-10-15T17:09:52.486Z,1005.1
2017-10-15T17:10:54.485Z,1005.1
2017-10-15T17:11:56.331Z,1005.1
2017-10-15T17:12:57.911Z,1005.1
2017-10-15T17:13:59.560Z,1005.1
2017-10-15T17:15:00.927Z,1005.1
2017-10-15T17:16:02.501Z,1005.1
2017-10-15T17:17:04.098Z,1005.1
2017-10-15T17:18:06.248Z,1005.1
2017-10-15T17:19:07.852Z,1005.1
2017-10-15T17:20:09.589Z,1005.2
2017-10-15T17:21:11.453Z,1005.1
2017-10-15T17:22:13.366Z,1005.1
2017-10-15T17:23:15.582Z,1005.1
2017-10-15T17:24:17.665Z,1005.1
2017-10-15T17:25:19.660Z,1005.1
2017-10-15T17:26:21.674Z,1005.1
2017-10-15T17:27:23.407Z,1005.1
2017-10-15T17:28:25.151Z,1005.1
2017-10-15T17:29:26.879Z,1005.1
2017-10-15T17:30:29.494Z,1005.1
2017-10-15T17:31:30.939Z,1005.1
2017-10-15T17:32:33.420Z,1005.2
2017-10-15T17:33:35.863Z,1005.1
2017-10-15T17:34:40.506Z,1005.1
2017-10-15T17:35:42.079Z,1005.1
2017-10-15T17:36:43.703Z,1005.1
2017-10-15T17:37:45.332Z,1005.1
2017-10-15T17:38:47.261Z,1005.1
2017-10-15T17:39:53.917Z,1005.1
2017-10-15T17:41:02.251Z,1005.1
2017-10-15T17:42:03.767Z,1005.1
2017-10-15T17:43:05.876Z,1005.1
2017-10-15T17:44:08.713Z,1005.2
2017-10-15T17:45:11.286Z,1005.1
2017-10-15T17:46:14.160Z,1005.1
2017-10-15T17:47:16.304Z,1005.1
2017-10-15T17:48:18.437Z,1005.2
2017-10-15T17:49:20.946Z,1005.2
2017-10-15T17:50:23.068Z,1005.2
2017-10-15T17:51:25.647Z,1005.1
2017-10-15T17:52:28.408Z,1005.1
2017-10-15T17:53:30.597Z,1005.2
2017-10-15T17:54:33.239Z,1005.2
2017-10-15T17:55:35.755Z,1005.2
2017-10-15T17:56:38.150Z,1005.2
2017-10-15T17:57:41.965Z,1005.2
2017-10-15T17:58:44.153Z,1005.2
2017-10-15T17:59:46.368Z,1005.2
2017-10-15T18:00:48.847Z,1005.2
2017-10-15T18:01:51.421Z,1005.2
2017-10-15T18:02:53.682Z,1005.2
2017-10-15T18:03:56.125Z,1005.2
2017-10-15T18:04:58.219Z,1005.2
2017-10-15T18:06:00.409Z,1005.2
2017-10-15T18:07:03.070Z,1005.2
2017-10-15T18:08:06.433Z,1005.2
2017-10-15T18:09:08.472Z,1005.2
2017-10-15T18:10:10.626Z,1005.2
2017-10-15T18:11:12.826Z,1005.2
2017-10-15T18:12:15.352Z,1005.2
2017-10-15T18:13:17.489Z,1005.2
2017-10-15T18:14:20.183Z,1005.2
2017-10-15T18:15:22.452Z,1005.2
2017-10-15T18:16:24.717Z,1005.2
2017-10-15T18:17:27.346Z,1005.3
2017-10-15T18:18:29.703Z,1005.2
2017-10-15T18:19:31.759Z,1005.2
2017-10-15T18:20:34.049Z,1005.2
2017-10-15T18:21:35.675Z,1005.2
2017-10-15T18:22:37.516Z,1005.2
2017-10-15T18:23:39.805Z,1005.2
2017-10-15T18:24:42.627Z,1005.2
2017-10-15T18:25:44.835Z,1005.2
2017-10-15T18:26:47.267Z,1005.2
2017-10-15T18:27:49.848Z,1005.2
2017-10-15T18:28:52.314Z,1005.2
2017-10-15T18:29:55.311Z,1005.2
2017-10-15T18:30:59.447Z,1005.2
2017-10-15T18:32:01.566Z,1005.3
2017-10-15T18:33:04.184Z,1005.2
2017-10-15T18:34:07.124Z,1005.2
2017-10-15T18:35:09.897Z,1005.2
2017-10-15T18:36:12.711Z,1005.1
2017-10-15T18:37:15.875Z,1005.2
2017-10-15T18:38:18.187Z,1005.1
2017-10-15T18:39:21.761Z,1005.2
2017-10-15T18:40:24.458Z,1005.2
2017-10-15T18:41:29.182Z,1005.2
2017-10-15T18:42:34.977Z,1005.2
2017-10-15T18:43:38.548Z,1005.2
2017-10-15T18:44:42.965Z,1005.2
2017-10-15T18:45:46.106Z,1005.2
2017-10-15T18:46:49.112Z,1005.2
2017-10-15T18:50:15.967Z,1005.2
2017-10-15T18:51:18.716Z,1005.2
2017-10-15T18:52:22.204Z,1005.2
2017-10-15T18:54:04.536Z,1005.2
2017-10-15T18:55:11.153Z,1005.2
2017-10-15T18:56:14.831Z,1005.2
2017-10-15T18:57:18.192Z,1005.2
2017-10-15T18:58:21.093Z,1005.2
2017-10-15T18:59:24.551Z,1005.2
2017-10-15T19:00:27.624Z,1005.3
2017-10-15T19:01:32.256Z,1005.2
2017-10-15T19:02:35.089Z,1005.2
2017-10-15T19:03:38.994Z,1005.2
2017-10-15T19:04:41.666Z,1005.2
2017-10-15T19:05:43.933Z,1005.2
2017-10-15T19:06:48.194Z,1005.2
2017-10-15T19:07:50.811Z,1005.2
2017-10-15T19:08:54.194Z,1005.2
2017-10-15T19:09:56.774Z,1005.2
2017-10-15T19:10:59.595Z,1005.2
2017-10-15T19:12:03.371Z,1005.2
2017-10-15T19:13:05.755Z,1005.2
2017-10-15T19:14:07.846Z,1005.2
2017-10-15T19:15:11.041Z,1005.2
2017-10-15T19:16:13.507Z,1005.2
2017-10-15T19:17:15.980Z,1005.2
2017-10-15T19:18:18.296Z,1005.3
2017-10-15T19:19:20.736Z,1005.3
2017-10-15T19:20:23.167Z,1005.3
2017-10-15T19:21:25.517Z,1005.3
2017-10-15T19:22:28.250Z,1005.3
2017-10-15T19:23:30.618Z,1005.3
2017-10-15T19:24:32.843Z,1005.3
2017-10-15T19:25:36.312Z,1005.3
2017-10-15T19:26:38.562Z,1005.3
2017-10-15T19:27:40.981Z,1005.3
2017-10-15T19:28:43.858Z,1005.3
2017-10-15T19:29:46.868Z,1005.3
2017-10-15T19:30:49.073Z,1005.3
2017-10-15T19:31:52.221Z,1005.3
2017-10-15T19:32:55.079Z,1005.2
2017-10-15T19:33:57.741Z,1005.3
2017-10-15T19:35:00.858Z,1005.3
2017-10-15T19:36:03.246Z,1005.3
2017-10-15T19:37:05.535Z,1005.3
2017-10-15T19:38:08.131Z,1005.3
2017-10-15T19:39:10.578Z,1005.3
2017-10-15T19:40:15.102Z,1005.3
2017-10-15T19:41:18.034Z,1005.3
2017-10-15T19:42:19.899Z,1005.3
2017-10-15T19:43:21.878Z,1005.3
2017-10-15T19:44:23.435Z,1005.3
2017-10-15T19:45:26.919Z,1005.3
2017-10-15T19:46:28.574Z,1005.3
2017-10-15T19:47:30.100Z,1005.3
2017-10-15T19:48:32.328Z,1005.3
2017-10-15T19:49:33.932Z,1005.3
2017-10-15T19:50:35.893Z,1005.3
2017-10-15T19:51:37.614Z,1005.3
2017-10-15T19:52:39.533Z,1005.3
2017-10-15T19:53:42.716Z,1005.3
2017-10-15T19:54:44.302Z,1005.3
2017-10-15T19:55:45.890Z,1005.3
2017-10-15T19:56:47.540Z,1005.3
2017-10-15T19:57:49.226Z,1005.3
2017-10-15T19:58:50.952Z,1005.4
2017-10-15T19:59:52.727Z,1005.3
2017-10-15T20:00:55.438Z,1005.4
2017-10-15T20:01:56.989Z,1005.4
2017-10-15T20:02:58.866Z,1005.4
2017-10-15T20:04:01.120Z,1005.4
2017-10-15T20:05:02.781Z,1005.4
2017-10-15T20:06:04.422Z,1005.4
2017-10-15T20:07:05.977Z,1005.4
2017-10-15T20:08:07.520Z,1005.4
2017-10-15T20:09:09.217Z,1005.4
2017-10-15T20:10:10.754Z,1005.4
2017-10-15T20:11:12.300Z,1005.4
2017-10-15T20:12:13.868Z,1005.4
2017-10-15T20:13:15.511Z,1005.4
2017-10-15T20:14:17.106Z,1005.4
2017-10-15T20:15:18.723Z,1005.4
2017-10-15T20:16:20.245Z,1005.4
2017-10-15T20:17:22.861Z,1005.4
2017-10-15T20:18:24.381Z,1005.4
2017-10-15T20:19:26.282Z,1005.4
2017-10-15T20:20:27.836Z,1005.4
2017-10-15T20:21:29.348Z,1005.4
2017-10-15T20:22:31.091Z,1005.4
2017-10-15T20:23:34.004Z,1005.4
2017-10-15T20:24:35.412Z,1005.3
2017-10-15T20:25:37.204Z,1005.4
2017-10-15T20:26:38.757Z,1005.3
2017-10-15T20:27:40.412Z,1005.3
2017-10-15T20:28:42.043Z,1005.4
2017-10-15T20:29:43.707Z,1005.4
2017-10-15T20:30:45.276Z,1005.4
2017-10-15T20:31:46.845Z,1005.4
2017-10-15T20:32:48.494Z,1005.4
2017-10-15T20:33:50.096Z,1005.4
2017-10-15T20:34:51.735Z,1005.4
2017-10-15T20:35:53.301Z,1005.4
2017-10-15T20:36:54.871Z,1005.4
2017-10-15T20:37:56.481Z,1005.4
2017-10-15T20:38:58.096Z,1005.4
2017-10-15T20:39:59.745Z,1005.4
2017-10-15T20:41:01.441Z,1005.4
2017-10-15T20:42:03.082Z,1005.4
2017-10-15T20:43:04.663Z,1005.4
2017-10-15T20:44:06.389Z,1005.4
2017-10-15T20:45:07.900Z,1005.5
2017-10-15T20:46:09.501Z,1005.4
2017-10-15T20:47:11.159Z,1005.4
2017-10-15T20:48:12.936Z,1005.4
2017-10-15T20:49:14.780Z,1005.4
2017-10-15T20:50:16.489Z,1005.4
2017-10-15T20:51:18.050Z,1005.4
2017-10-15T20:52:19.726Z,1005.4
2017-10-15T20:53:21.316Z,1005.4
2017-10-15T20:54:23.040Z,1005.4
2017-10-15T20:55:25.020Z,1005.4
2017-10-15T20:56:26.785Z,1005.4
2017-10-15T20:57:28.478Z,1005.4
2017-10-15T20:58:30.030Z,1005.4
2017-10-15T20:59:31.877Z,1005.4
2017-10-15T21:00:34.860Z,1005.4
2017-10-15T21:01:37.467Z,1005.4
2017-10-15T21:02:39.158Z,1005.4
2017-10-15T21:03:40.775Z,1005.4
2017-10-15T21:04:42.422Z,1005.4
2017-10-15T21:05:44.141Z,1005.4
2017-10-15T21:06:46.498Z,1005.4
2017-10-15T21:07:48.274Z,1005.4
2017-10-15T21:08:50.141Z,1005.4
2017-10-15T21:09:52.376Z,1005.4
2017-10-15T21:10:54.323Z,1005.4
2017-10-15T21:11:56.091Z,1005.4
2017-10-15T21:12:58.712Z,1005.4
2017-10-15T21:14:00.457Z,1005.4
2017-10-15T21:15:02.303Z,1005.4
2017-10-15T21:16:04.048Z,1005.4
2017-10-15T21:17:05.624Z,1005.4
2017-10-15T21:18:07.886Z,1005.4
2017-10-15T21:19:09.552Z,1005.4
2017-10-15T21:20:11.164Z,1005.4
2017-10-15T21:21:12.848Z,1005.4
2017-10-15T21:22:14.522Z,1005.4
2017-10-15T21:23:16.466Z,1005.4
2017-10-15T21:24:18.018Z,1005.4
2017-10-15T21:25:19.668Z,1005.4
2017-10-15T21:26:21.247Z,1005.4
2017-10-15T21:27:22.767Z,1005.5
2017-10-15T21:28:24.491Z,1005.4
2017-10-15T21:29:26.116Z,1005.5
2017-10-15T21:30:28.157Z,1005.4
2017-10-15T21:31:30.577Z,1005.5
2017-10-15T21:32:32.642Z,1005.5
2017-10-15T21:33:34.611Z,1005.5
2017-10-15T21:34:36.981Z,1005.5
2017-10-15T21:35:39.380Z,1005.5
2017-10-15T21:36:41.232Z,1005.5
2017-10-15T21:37:43.439Z,1005.5
2017-10-15T21:38:45.502Z,1005.5
2017-10-15T21:39:47.477Z,1005.5
2017-10-15T21:40:49.382Z,1005.5
2017-10-15T21:41:51.112Z,1005.5
2017-10-15T21:42:53.031Z,1005.5
2017-10-15T21:43:54.858Z,1005.5
2017-10-15T21:44:56.762Z,1005.6
2017-10-15T21:45:58.637Z,1005.5
2017-10-15T21:47:01.399Z,1005.6
2017-10-15T21:48:03.646Z,1005.5
2017-10-15T21:49:05.723Z,1005.5
2017-10-15T21:50:07.694Z,1005.5
2017-10-15T21:51:09.586Z,1005.5
2017-10-15T21:52:11.583Z,1005.5
2017-10-15T21:53:13.323Z,1005.5
2017-10-15T21:54:15.575Z,1005.4
2017-10-15T21:55:17.261Z,1005.5
2017-10-15T21:56:20.928Z,1005.5
2017-10-15T21:57:22.653Z,1005.5
2017-10-15T21:58:24.961Z,1005.5
2017-10-15T21:59:27.770Z,1005.5
2017-10-15T22:00:29.904Z,1005.5
2017-10-15T22:01:31.551Z,1005.5
2017-10-15T22:02:33.423Z,1005.4
2017-10-15T22:03:35.487Z,1005.4
2017-10-15T22:04:37.347Z,1005.4
2017-10-15T22:05:39.175Z,1005.4
2017-10-15T22:06:41.407Z,1005.4
2017-10-15T22:07:43.193Z,1005.5
2017-10-15T22:08:44.997Z,1005.4
2017-10-15T22:09:47.095Z,1005.4
2017-10-15T22:10:49.079Z,1005.4
2017-10-15T22:11:51.164Z,1005.4
2017-10-15T22:12:53.261Z,1005.4
2017-10-15T22:13:55.205Z,1005.4
2017-10-15T22:14:57.014Z,1005.3
2017-10-15T22:15:58.797Z,1005.3
2017-10-15T22:17:00.703Z,1005.3
2017-10-15T22:18:02.538Z,1005.3
2017-10-15T22:19:04.299Z,1005.3
2017-10-15T22:20:06.392Z,1005.3
2017-10-15T22:21:08.013Z,1005.3
2017-10-15T22:22:09.603Z,1005.3
2017-10-15T22:23:11.268Z,1005.3
2017-10-15T22:24:12.983Z,1005.3
2017-10-15T22:25:14.734Z,1005.3
2017-10-15T22:26:16.446Z,1005.3
2017-10-15T22:27:18.457Z,1005.3
2017-10-15T22:28:20.232Z,1005.3
2017-10-15T22:29:22.226Z,1005.3
2017-10-15T22:30:24.076Z,1005.3
2017-10-15T22:31:25.880Z,1005.3
2017-10-15T22:32:27.683Z,1005.3
2017-10-15T22:33:29.838Z,1005.3
2017-10-15T22:34:31.726Z,1005.3
2017-10-15T22:35:33.521Z,1005.3
2017-10-15T22:36:35.313Z,1005.3
2017-10-15T22:37:37.167Z,1005.3
2017-10-15T22:38:38.889Z,1005.3
2017-10-15T22:39:40.742Z,1005.3
2017-10-15T22:40:42.401Z,1005.3
2017-10-15T22:41:44.177Z,1005.3
2017-10-15T22:42:46.036Z,1005.3
2017-10-15T22:43:47.943Z,1005.3
2017-10-15T22:44:49.724Z,1005.3
2017-10-15T22:45:51.624Z,1005.3
2017-10-15T22:46:53.441Z,1005.3
2017-10-15T22:47:55.065Z,1005.2
2017-10-15T22:48:56.755Z,1005.2
2017-10-15T22:49:58.395Z,1005.3
2017-10-15T22:51:00.163Z,1005.3
2017-10-15T22:52:01.865Z,1005.2
2017-10-15T22:53:03.707Z,1005.2
2017-10-15T22:54:05.370Z,1005.2
2017-10-15T22:55:07.213Z,1005.2
2017-10-15T22:56:08.980Z,1005.2
2017-10-15T22:57:10.680Z,1005.2
2017-10-15T22:58:12.530Z,1005.2
2017-10-15T23:00:04.961Z,1005.2
2017-10-15T23:03:44.703Z,1005.1
2017-10-15T23:04:46.377Z,1005.1
2017-10-15T23:05:48.194Z,1005.1
2017-10-15T23:06:49.940Z,1005.1
2017-10-15T23:07:51.777Z,1005.1
2017-10-15T23:08:53.543Z,1005.1
2017-10-15T23:09:55.424Z,1005.1
2017-10-15T23:10:57.069Z,1005.1
2017-10-15T23:11:58.684Z,1005.1
2017-10-15T23:13:00.285Z,1005.1
2017-10-15T23:14:01.873Z,1005.1
2017-10-15T23:15:03.574Z,1005.1
2017-10-15T23:16:05.472Z,1005.1
2017-10-15T23:17:07.414Z,1005.1
2017-10-15T23:18:09.374Z,1005.1
2017-10-15T23:19:11.944Z,1005.1
2017-10-15T23:20:13.855Z,1005.1
2017-10-15T23:21:15.863Z,1005.1
2017-10-15T23:22:17.507Z,1005.1
2017-10-15T23:23:19.376Z,1005.1
2017-10-15T23:24:21.382Z,1005.1
2017-10-15T23:25:23.362Z,1005.1
2017-10-15T23:26:25.239Z,1005.1
2017-10-15T23:27:27.212Z,1005.2
2017-10-15T23:28:29.105Z,1005.1
2017-10-15T23:29:30.905Z,1005.1
2017-10-15T23:30:33.316Z,1005.2
2017-10-15T23:31:35.238Z,1005.2
2017-10-15T23:32:37.190Z,1005.1
2017-10-15T23:33:38.989Z,1005.1
2017-10-15T23:34:40.833Z,1005.1
2017-10-15T23:35:42.776Z,1005.2
2017-10-15T23:36:44.827Z,1005.2
2017-10-15T23:37:46.767Z,1005.1
2017-10-15T23:38:48.492Z,1005.1
2017-10-15T23:39:50.408Z,1005.1
2017-10-15T23:40:52.323Z,1005.1
2017-10-15T23:41:54.281Z,1005.2
2017-10-15T23:42:56.217Z,1005.2
2017-10-15T23:43:58.100Z,1005.2
2017-10-15T23:45:00.071Z,1005.2
2017-10-15T23:46:02.024Z,1005.2
2017-10-15T23:47:03.961Z,1005.2
2017-10-15T23:48:05.781Z,1005.3
2017-10-15T23:49:07.591Z,1005.3
2017-10-15T23:50:09.532Z,1005.3
2017-10-15T23:51:11.542Z,1005.3
2017-10-15T23:52:13.406Z,1005.3
2017-10-15T23:53:15.298Z,1005.3
2017-10-15T23:54:17.135Z,1005.2
2017-10-15T23:55:18.944Z,1005.2
2017-10-15T23:56:20.901Z,1005.2
2017-10-15T23:57:22.957Z,1005.2
2017-10-15T23:58:24.610Z,1005.2
2017-10-15T23:59:26.473Z,1005.2
